Time;durP1;ratioP1;P1;durP2;ratioP2;P2;SDS_P1;SDS_P2;PMS_P1;PMS_P2;Temp;Humidity;BMP_temperature;BMP_pressure;BME280_temperature;BME280_humidity;BME280_pressure;Samples;Min_cycle;Max_cycle;Signal;HPM_P1;HPM_P2
2021/11/07 00:00:01;;;;;;;55.22;21.95;;;;;;;6.16;100.00;97128.22;4996855;28;20065;-51
2021/11/07 00:02:41;;;;;;;48.67;21.10;;;;;;;5.96;100.00;97109.50;5004754;28;20128;-54
2021/11/07 00:05:20;;;;;;;58.97;18.58;;;;;;;5.55;100.00;97100.72;4998718;28;20642;-53
2021/11/07 00:07:55;;;;;;;51.47;19.20;;;;;;;5.50;100.00;97094.09;4982226;28;20062;-53
2021/11/07 00:10:31;;;;;;;61.83;19.40;;;;;;;5.36;100.00;97114.13;4980119;28;20082;-56
2021/11/07 00:13:11;;;;;;;51.83;19.20;;;;;;;5.67;100.00;97106.94;4984686;28;20650;-58
2021/11/07 00:15:41;;;;;;;53.20;20.20;;;;;;;5.64;100.00;97115.84;5005106;28;20072;-58
2021/11/07 00:18:12;;;;;;;52.55;18.88;;;;;;;4.91;100.00;97117.81;5005990;28;20492;-51
2021/11/07 00:20:48;;;;;;;56.58;20.23;;;;;;;5.22;100.00;97122.81;5005718;28;20061;-53
2021/11/07 00:23:36;;;;;;;53.28;21.20;;;;;;;5.44;100.00;97119.72;4997624;28;20061;-57
2021/11/07 00:26:11;;;;;;;58.05;20.63;;;;;;;5.06;100.00;97116.88;4986020;28;20069;-54
2021/11/07 00:28:45;;;;;;;80.85;21.80;;;;;;;5.08;100.00;97114.16;4985092;28;20110;-53
2021/11/07 00:31:22;;;;;;;74.18;22.98;;;;;;;5.37;100.00;97113.19;4999624;28;20049;-52
2021/11/07 00:34:24;;;;;;;64.82;22.05;;;;;;;5.47;100.00;97113.44;4999336;28;21382;-57
2021/11/07 00:36:53;;;;;;;43.83;18.85;;;;;;;5.11;100.00;97120.03;4983765;28;20066;-56
2021/11/07 00:39:28;;;;;;;;;;;;;;;4.98;100.00;97126.94;4982671;28;20457;-58
2021/11/07 00:42:05;;;;;;;35.38;16.67;;;;;;;5.16;100.00;97144.16;4994919;28;20043;-54
2021/11/07 00:44:43;;;;;;;42.22;18.63;;;;;;;5.10;100.00;97143.69;4990393;28;20069;-58
2021/11/07 00:47:24;;;;;;;41.75;17.92;;;;;;;4.63;100.00;97144.75;4995178;28;20061;-53
2021/11/07 00:49:56;;;;;;;33.65;16.98;;;;;;;4.88;100.00;97131.88;5006089;28;20076;-52
2021/11/07 00:52:31;;;;;;;35.38;17.08;;;;;;;4.86;100.00;97140.78;5003823;28;20058;-58
2021/11/07 00:55:05;;;;;;;39.45;17.90;;;;;;;5.01;100.00;97132.00;5008748;28;20086;-57
2021/11/07 00:57:43;;;;;;;46.28;18.73;;;;;;;4.43;100.00;97153.75;5003591;28;20061;-53
2021/11/07 01:00:20;;;;;;;42.42;17.08;;;;;;;4.40;100.00;97164.38;5001940;28;20073;-59
2021/11/07 01:02:52;;;;;;;36.47;17.08;;;;;;;4.60;100.00;97155.38;5004884;28;20042;-58
2021/11/07 01:05:24;;;;;;;35.30;17.33;;;;;;;4.69;100.00;97154.84;5002608;28;20169;-55
2021/11/07 01:07:53;;;;;;;44.60;17.95;;;;;;;4.71;100.00;97147.75;5001240;28;20069;-55
2021/11/07 01:10:22;;;;;;;38.22;17.20;;;;;;;4.73;100.00;97154.56;5000724;28;20082;-58
2021/11/07 01:12:51;;;;;;;36.35;18.50;;;;;;;4.75;100.00;97167.56;5006911;28;20078;-58
2021/11/07 01:15:23;;;;;;;43.45;18.17;;;;;;;4.64;100.00;97175.16;5008792;28;20070;-56
2021/11/07 01:17:54;;;;;;;42.35;18.95;;;;;;;4.75;100.00;97164.94;5003139;28;20066;-56
2021/11/07 01:20:25;;;;;;;39.78;19.80;;;;;;;4.75;100.00;97150.09;5006112;28;21801;-56
2021/11/07 01:22:58;;;;;;;41.40;20.70;;;;;;;4.88;100.00;97144.97;5005920;28;20528;-57
2021/11/07 01:25:29;;;;;;;38.95;20.45;;;;;;;5.22;100.00;97132.44;5006423;28;20081;-56
2021/11/07 01:27:59;;;;;;;43.08;21.95;;;;;;;4.91;100.00;97123.88;5007703;28;20078;-58
2021/11/07 01:30:31;;;;;;;45.38;23.40;;;;;;;5.22;100.00;97117.59;5003060;28;20077;-56
2021/11/07 01:33:03;;;;;;;43.33;20.85;;;;;;;4.98;100.00;97112.09;5004831;28;20066;-57
2021/11/07 01:35:39;;;;;;;56.13;23.15;;;;;;;5.44;100.00;97104.03;4996720;28;20062;-55
2021/11/07 01:38:16;;;;;;;67.00;23.90;;;;;;;5.68;100.00;97092.94;4997459;28;20085;-58
2021/11/07 01:40:48;;;;;;;44.10;22.83;;;;;;;5.57;100.00;97093.59;5006932;28;20072;-57
2021/11/07 01:43:16;;;;;;;67.80;23.33;;;;;;;5.15;100.00;97092.78;5009011;28;20572;-57
2021/11/07 01:45:50;;;;;;;40.35;23.38;;;;;;;5.59;100.00;97086.50;5007847;28;20572;-53
2021/11/07 01:48:23;;;;;;;57.88;23.75;;;;;;;5.83;100.00;97073.63;5003325;28;20073;-53
2021/11/07 01:50:56;;;;;;;44.20;23.25;;;;;;;5.46;100.00;97073.38;4993643;28;20442;-51
2021/11/07 01:53:27;;;;;;;52.50;23.77;;;;;;;5.40;100.00;97080.75;4994445;28;20078;-50
2021/11/07 01:55:57;;;;;;;41.80;22.85;;;;;;;5.46;100.00;97080.38;5003947;28;20070;-58
2021/11/07 01:58:27;;;;;;;51.53;23.65;;;;;;;5.70;100.00;97073.56;5000119;28;20081;-56
2021/11/07 02:00:58;;;;;;;48.38;23.48;;;;;;;5.70;100.00;97064.88;4999192;28;20086;-58
2021/11/07 02:03:26;;;;;;;61.58;24.25;;;;;;;5.38;100.00;97061.72;5004582;28;20077;-56
2021/11/07 02:05:59;;;;;;;55.30;24.15;;;;;;;5.16;100.00;97075.31;5005294;28;20069;-55
2021/11/07 02:08:28;;;;;;;69.00;24.50;;;;;;;5.44;100.00;97064.78;5003789;28;20065;-57
2021/11/07 02:10:58;;;;;;;47.15;23.45;;;;;;;5.65;100.00;97066.97;5006884;28;20528;-58
2021/11/07 02:13:27;;;;;;;62.83;23.75;;;;;;;5.71;100.00;97069.16;5006343;28;20074;-56
2021/11/07 02:15:58;;;;;;;43.03;22.02;;;;;;;5.46;100.00;97067.31;5009173;28;20699;-58
2021/11/07 02:18:27;;;;;;;51.50;23.27;;;;;;;5.94;100.00;97062.47;5022341;28;20065;-53
2021/11/07 02:20:57;;;;;;;53.63;22.92;;;;;;;5.42;100.00;97056.19;5007364;28;20069;-57
2021/11/07 02:23:26;;;;;;;54.92;24.95;;;;;;;5.73;100.00;97046.38;5006101;28;20562;-56
2021/11/07 02:25:57;;;;;;;47.17;23.45;;;;;;;5.94;100.00;97038.91;5005737;28;20663;-55
2021/11/07 02:28:32;;;;;;;57.83;24.00;;;;;;;5.81;100.00;97032.78;5004721;28;20085;-52
2021/11/07 02:31:01;;;;;;;53.67;23.40;;;;;;;5.50;100.00;97034.78;5009358;28;20062;-54
2021/11/07 02:33:30;;;;;;;66.57;25.17;;;;;;;5.68;100.00;97032.75;5001598;28;20074;-56
2021/11/07 02:36:05;;;;;;;57.60;24.42;;;;;;;5.46;100.00;97025.44;5005700;28;20497;-57
2021/11/07 02:38:35;;;;;;;43.15;23.40;;;;;;;5.61;100.00;97018.38;5004060;28;20515;-53
2021/11/07 02:41:06;;;;;;;57.40;24.70;;;;;;;5.80;100.00;97015.41;5001533;28;20559;-54
2021/11/07 02:43:41;;;;;;;59.85;24.60;;;;;;;5.65;100.00;97019.88;4982623;28;20089;-54
2021/11/07 02:46:15;;;;;;;53.22;23.83;;;;;;;5.47;100.00;97032.34;5006730;28;20082;-54
2021/11/07 02:48:45;;;;;;;53.80;24.10;;;;;;;5.69;100.00;97021.34;4984341;28;20081;-54
2021/11/07 02:51:15;;;;;;;45.58;23.05;;;;;;;5.42;100.00;97014.34;5001864;28;20058;-50
2021/11/07 02:53:43;;;;;;;49.47;23.60;;;;;;;5.35;100.00;97015.69;5006140;28;20077;-56
2021/11/07 02:56:12;;;;;;;55.00;24.88;;;;;;;5.44;100.00;97011.66;5006769;28;20062;-57
2021/11/07 02:58:41;;;;;;;46.05;22.73;;;;;;;5.10;100.00;97005.97;4996853;28;20077;-57
2021/11/07 03:01:10;;;;;;;49.63;25.48;;;;;;;5.70;100.00;96995.06;4984725;28;20483;-55
2021/11/07 03:03:38;;;;;;;43.63;22.83;;;;;;;5.32;100.00;96989.72;4981696;28;20069;-56
2021/11/07 03:06:07;;;;;;;50.53;25.38;;;;;;;5.52;100.00;96992.84;4975487;28;20085;-56
2021/11/07 03:08:41;;;;;;;45.00;24.27;;;;;;;5.45;100.00;96987.16;4984464;28;20074;-55
2021/11/07 03:11:11;;;;;;;46.30;25.58;;;;;;;5.63;100.00;96974.66;4990359;28;20076;-55
2021/11/07 03:13:40;;;;;;;46.00;25.23;;;;;;;5.47;100.00;96983.53;5004570;28;20499;-55
2021/11/07 03:16:11;;;;;;;42.80;24.15;;;;;;;5.79;100.00;96985.78;5008140;28;20681;-51
2021/11/07 03:18:40;;;;;;;47.20;24.80;;;;;;;5.64;100.00;96977.19;5002459;28;20069;-55
2021/11/07 03:21:09;;;;;;;42.00;23.30;;;;;;;5.77;100.00;96976.34;5005597;28;20495;-52
2021/11/07 03:23:38;;;;;;;41.25;22.05;;;;;;;5.37;100.00;96971.16;5006780;28;20073;-56
2021/11/07 03:26:10;;;;;;;37.97;21.55;;;;;;;5.22;100.00;96970.34;5000722;28;20069;-57
2021/11/07 03:28:40;;;;;;;36.88;20.52;;;;;;;5.16;100.00;96961.13;4996479;28;20107;-55
2021/11/07 03:31:11;;;;;;;42.05;23.60;;;;;;;5.29;100.00;96961.16;4998150;28;20101;-57
2021/11/07 03:33:43;;;;;;;37.28;21.73;;;;;;;5.65;100.00;96975.41;5005296;28;20107;-55
2021/11/07 03:36:17;;;;;;;37.28;20.92;;;;;;;5.66;100.00;96992.75;5000792;28;20070;-55
2021/11/07 03:38:46;;;;;;;34.30;20.25;;;;;;;5.43;100.00;97005.56;4992099;28;20050;-55
2021/11/07 03:41:17;;;;;;;24.40;14.45;;;;;;;5.00;100.00;97008.31;4991797;28;20073;-56
2021/11/07 03:43:46;;;;;;;29.13;18.20;;;;;;;4.99;100.00;97003.19;5000209;28;20062;-57
2021/11/07 03:46:16;;;;;;;29.95;18.67;;;;;;;5.31;100.00;96993.28;5006920;28;20815;-53
2021/11/07 03:48:44;;;;;;;27.83;17.42;;;;;;;5.13;100.00;96984.84;4999377;28;21276;-53
2021/11/07 03:51:15;;;;;;;30.67;17.85;;;;;;;5.15;100.00;96982.13;4999020;28;20070;-55
2021/11/07 03:53:44;;;;;;;33.80;20.10;;;;;;;5.14;100.00;96972.63;5002377;28;20082;-56
2021/11/07 03:56:12;;;;;;;28.48;18.23;;;;;;;5.06;100.00;96967.88;4997556;28;20069;-56
2021/11/07 03:58:42;;;;;;;29.02;18.63;;;;;;;5.21;100.00;96959.03;5002411;28;20062;-57
2021/11/07 04:01:11;;;;;;;27.85;18.30;;;;;;;5.33;100.00;96952.16;4986681;28;20568;-57
2021/11/07 04:03:39;;;;;;;29.10;18.15;;;;;;;5.31;100.00;96937.53;5004726;28;20103;-58
2021/11/07 04:06:08;;;;;;;33.10;18.23;;;;;;;5.11;100.00;96933.59;5002313;28;20066;-58
2021/11/07 04:08:36;;;;;;;28.48;18.65;;;;;;;5.25;100.00;96933.53;5003015;28;20149;-57
2021/11/07 04:11:05;;;;;;;30.42;19.33;;;;;;;5.06;100.00;96931.28;5003078;28;20069;-56
2021/11/07 04:13:37;;;;;;;29.58;19.17;;;;;;;5.03;100.00;96943.72;5001340;28;20081;-51
2021/11/07 04:16:09;;;;;;;28.15;17.65;;;;;;;4.72;100.00;96940.44;5006621;28;20477;-56
2021/11/07 04:18:38;;;;;;;28.70;18.02;;;;;;;5.09;100.00;96944.13;5000602;28;20085;-57
2021/11/07 04:21:07;;;;;;;32.05;18.17;;;;;;;5.04;100.00;96937.56;4989711;28;20062;-59
2021/11/07 04:23:36;;;;;;;29.45;17.80;;;;;;;4.89;100.00;96929.75;4996377;28;20085;-53
2021/11/07 04:26:05;;;;;;;31.90;18.17;;;;;;;4.91;100.00;96930.47;5001320;28;20097;-57
2021/11/07 04:28:34;;;;;;;25.95;16.30;;;;;;;4.57;100.00;96938.78;5005406;28;20160;-57
2021/11/07 04:31:02;;;;;;;27.63;16.17;;;;;;;4.71;100.00;96934.38;5007455;28;20491;-58
2021/11/07 04:33:32;;;;;;;33.15;18.15;;;;;;;4.86;100.00;96935.19;5003836;28;20543;-56
2021/11/07 04:36:01;;;;;;;32.97;18.33;;;;;;;4.79;100.00;96933.91;5001982;28;20077;-56
2021/11/07 04:38:30;;;;;;;33.88;19.33;;;;;;;4.88;100.00;96932.44;5006448;28;20077;-56
2021/11/07 04:40:58;;;;;;;31.42;17.50;;;;;;;4.90;100.00;96930.59;5003486;28;20064;-56
2021/11/07 04:43:27;;;;;;;34.28;18.90;;;;;;;4.82;100.00;96935.44;5005038;28;20551;-56
2021/11/07 04:45:55;;;;;;;37.08;19.70;;;;;;;4.65;100.00;96937.38;5005628;28;20095;-59
2021/11/07 04:48:24;;;;;;;35.70;19.65;;;;;;;5.13;100.00;96937.81;5003062;28;20072;-54
2021/11/07 04:50:54;;;;;;;34.05;18.60;;;;;;;4.75;100.00;96941.09;5004388;28;20492;-56
2021/11/07 04:53:23;;;;;;;34.28;18.88;;;;;;;4.88;100.00;96937.69;5003789;28;20089;-54
2021/11/07 04:55:52;;;;;;;38.38;19.85;;;;;;;4.84;100.00;96931.81;5003654;28;20058;-54
2021/11/07 04:58:20;;;;;;;36.70;20.40;;;;;;;5.00;100.00;96935.13;5002244;28;20551;-54
2021/11/07 05:00:49;;;;;;;37.25;19.88;;;;;;;5.09;100.00;96945.91;5002539;28;20080;-57
2021/11/07 05:03:17;;;;;;;37.63;20.05;;;;;;;4.86;100.00;96950.84;5004467;28;20066;-59
2021/11/07 05:05:46;;;;;;;25.48;14.75;;;;;;;4.73;100.00;96952.56;4998887;28;20037;-56
2021/11/07 05:08:16;;;;;;;34.35;18.23;;;;;;;4.62;100.00;96952.41;4997577;28;20077;-57
2021/11/07 05:10:45;;;;;;;34.95;19.95;;;;;;;5.02;100.00;96955.09;5004456;28;20061;-57
2021/11/07 05:13:13;;;;;;;34.03;18.52;;;;;;;4.86;100.00;96948.25;4998581;28;20089;-56
2021/11/07 05:15:42;;;;;;;35.22;20.25;;;;;;;5.06;100.00;96944.38;5002588;28;20068;-55
2021/11/07 05:18:10;;;;;;;35.55;18.30;;;;;;;4.94;100.00;96945.97;4986773;28;20066;-57
2021/11/07 05:20:39;;;;;;;37.03;20.75;;;;;;;5.34;100.00;96938.19;4995607;28;20060;-55
2021/11/07 05:23:07;;;;;;;39.25;20.75;;;;;;;5.36;100.00;96928.44;4999618;28;20073;-57
2021/11/07 05:25:37;;;;;;;38.50;21.52;;;;;;;5.47;100.00;96925.97;5002841;28;20139;-56
2021/11/07 05:28:05;;;;;;;37.33;20.30;;;;;;;5.30;100.00;96933.22;5003490;28;20104;-60
2021/11/07 05:30:34;;;;;;;39.67;20.77;;;;;;;5.42;100.00;96935.88;5004005;28;20077;-58
2021/11/07 05:33:03;;;;;;;31.38;18.98;;;;;;;5.02;100.00;96942.84;5002251;28;20066;-57
2021/11/07 05:35:32;;;;;;;32.45;19.10;;;;;;;5.36;100.00;96938.06;5006836;28;20137;-55
2021/11/07 05:38:01;;;;;;;29.95;18.15;;;;;;;5.42;100.00;96924.59;5006284;28;20070;-55
2021/11/07 05:40:29;;;;;;;31.55;19.38;;;;;;;5.02;100.00;96918.50;5006337;28;20081;-56
2021/11/07 05:42:59;;;;;;;30.25;16.73;;;;;;;4.97;100.00;96914.41;5006786;28;20096;-55
2021/11/07 05:45:28;;;;;;;27.27;16.58;;;;;;;4.80;100.00;96921.66;5005741;28;20069;-54
2021/11/07 05:47:56;;;;;;;27.33;16.27;;;;;;;4.64;100.00;96920.00;4992181;28;20574;-56
2021/11/07 05:50:25;;;;;;;27.38;16.48;;;;;;;4.78;100.00;96916.53;4986276;28;20078;-53
2021/11/07 05:52:54;;;;;;;28.23;17.58;;;;;;;5.12;100.00;96907.34;4993539;28;20077;-55
2021/11/07 05:55:22;;;;;;;26.77;15.73;;;;;;;5.06;100.00;96901.69;5006016;28;20638;-52
2021/11/07 05:57:51;;;;;;;17.52;10.68;;;;;;;4.67;100.00;96914.59;5001151;28;20489;-55
2021/11/07 06:00:21;;;;;;;23.50;13.55;;;;;;;4.60;100.00;96905.47;4990634;28;20081;-52
2021/11/07 06:02:50;;;;;;;24.65;15.13;;;;;;;4.81;100.00;96891.97;4985855;28;20042;-53
2021/11/07 06:05:19;;;;;;;28.38;17.77;;;;;;;4.87;100.00;96868.06;5007847;28;20084;-54
2021/11/07 06:07:49;;;;;;;26.88;17.00;;;;;;;4.75;100.00;96867.94;4995497;28;20073;-56
2021/11/07 06:10:18;;;;;;;26.25;15.68;;;;;;;4.75;100.00;96865.31;4990937;28;20574;-52
2021/11/07 06:12:47;;;;;;;28.25;16.30;;;;;;;4.45;100.00;96851.59;4983573;28;20049;-50
2021/11/07 06:15:15;;;;;;;27.00;16.52;;;;;;;4.67;100.00;96840.63;4986085;28;20074;-56
2021/11/07 06:17:45;;;;;;;26.13;15.95;;;;;;;4.60;100.00;96836.72;4980172;28;20072;-56
2021/11/07 06:20:14;;;;;;;24.35;16.00;;;;;;;4.52;100.00;96830.22;4980378;28;20533;-57
2021/11/07 06:22:42;;;;;;;24.60;15.10;;;;;;;4.40;100.00;96846.66;4985710;28;20505;-58
2021/11/07 06:25:11;;;;;;;23.88;14.40;;;;;;;4.50;100.00;96859.97;4982643;28;20102;-53
2021/11/07 06:27:39;;;;;;;25.60;15.75;;;;;;;4.35;100.00;96869.63;5005926;28;20069;-54
2021/11/07 06:30:10;;;;;;;22.00;13.07;;;;;;;4.35;100.00;96874.84;5007607;28;20065;-55
2021/11/07 06:32:38;;;;;;;;;;;;;;;4.44;100.00;96879.50;4987890;28;20054;-57
2021/11/07 06:35:10;;;;;;;25.70;13.93;;;;;;;4.47;100.00;96884.53;4988692;28;19968;-57
2021/11/07 06:37:38;;;;;;;17.23;11.35;;;;;;;4.08;100.00;96887.00;5005047;28;20083;-54
2021/11/07 06:40:09;;;;;;;20.90;13.07;;;;;;;4.21;100.00;96882.69;5007414;28;20069;-56
2021/11/07 06:42:37;;;;;;;23.17;15.25;;;;;;;4.22;100.00;96892.19;5004665;28;20081;-54
2021/11/07 06:45:09;;;;;;;22.27;14.48;;;;;;;4.18;100.00;96893.31;5004962;28;20069;-59
2021/11/07 06:47:38;;;;;;;18.90;11.65;;;;;;;4.09;100.00;96899.94;5002834;28;20511;-53
2021/11/07 06:50:10;;;;;;;19.52;12.07;;;;;;;3.90;100.00;96907.22;5000447;28;20650;-54
2021/11/07 06:52:39;;;;;;;20.25;12.45;;;;;;;4.20;100.00;96918.41;5003615;28;20073;-57
2021/11/07 06:55:10;;;;;;;15.32;8.23;;;;;;;4.09;100.00;96926.03;4994830;28;20480;-58
2021/11/07 06:57:39;;;;;;;24.63;14.88;;;;;;;4.09;100.00;96925.19;5007372;28;20081;-55
2021/11/07 07:00:11;;;;;;;23.77;14.85;;;;;;;4.13;100.00;96930.16;5001080;28;20076;-53
2021/11/07 07:02:40;;;;;;;21.48;13.73;;;;;;;4.39;100.00;96928.53;5006173;28;20084;-52
2021/11/07 07:05:13;;;;;;;18.60;12.23;;;;;;;4.22;100.00;96931.34;5005311;28;20523;-55
2021/11/07 07:07:45;;;;;;;22.27;13.45;;;;;;;4.37;100.00;96922.59;5003422;28;20053;-56
2021/11/07 07:10:20;;;;;;;24.52;14.13;;;;;;;4.51;100.00;96921.75;5006992;28;20080;-51
2021/11/07 07:12:53;;;;;;;26.40;16.48;;;;;;;4.67;100.00;96926.81;4985542;28;20745;-55
2021/11/07 07:15:24;;;;;;;27.67;16.58;;;;;;;5.08;100.00;96924.16;4984761;28;20073;-51
2021/11/07 07:18:00;;;;;;;27.23;16.95;;;;;;;5.18;100.00;96921.81;4981877;28;20453;-56
2021/11/07 07:20:47;;;;;;;21.75;13.85;;;;;;;4.58;100.00;96930.88;4982582;28;20065;-52
2021/11/07 07:23:55;;;;;;;26.50;15.60;;;;;;;4.64;100.00;96919.16;4988046;28;20116;-57
2021/11/07 07:29:17;;;;;;;26.15;16.02;;;;;;;4.94;100.00;96912.00;4999909;28;20404;-55
2021/11/07 07:31:57;;;;;;;27.42;16.67;;;;;;;5.08;100.00;96902.44;5004724;28;20066;-58
2021/11/07 07:34:26;;;;;;;31.17;17.52;;;;;;;5.21;100.00;96901.53;5000250;28;20566;-56
2021/11/07 07:36:57;;;;;;;27.88;17.33;;;;;;;5.49;100.00;96884.00;5008858;28;20081;-56
2021/11/07 07:39:26;;;;;;;27.65;18.38;;;;;;;5.67;100.00;96889.78;5004032;28;20402;-56
2021/11/07 07:41:54;;;;;;;25.52;16.90;;;;;;;5.74;100.00;96891.03;5001865;28;20516;-56
2021/11/07 07:44:23;;;;;;;28.05;18.05;;;;;;;5.74;100.00;96877.94;4998295;28;20072;-54
2021/11/07 07:46:51;;;;;;;29.23;18.10;;;;;;;5.77;100.00;96876.91;5005635;28;20123;-54
2021/11/07 07:49:20;;;;;;;26.48;17.70;;;;;;;5.73;100.00;96881.50;5005337;28;20081;-56
2021/11/07 07:51:48;;;;;;;28.88;18.27;;;;;;;5.94;100.00;96882.69;5006675;28;20104;-59
2021/11/07 07:54:18;;;;;;;30.15;19.27;;;;;;;6.15;100.00;96875.13;5000869;28;20077;-53
2021/11/07 07:56:48;;;;;;;28.95;17.65;;;;;;;5.78;100.00;96866.34;4996854;28;20096;-55
2021/11/07 07:59:16;;;;;;;27.08;18.67;;;;;;;6.32;100.00;96866.09;5002073;28;20077;-56
2021/11/07 08:01:45;;;;;;;27.98;18.80;;;;;;;6.33;100.00;96854.69;5001788;28;20061;-59
2021/11/07 08:04:14;;;;;;;28.27;18.50;;;;;;;6.38;100.00;96849.09;4999073;28;20453;-56
2021/11/07 08:06:43;;;;;;;29.48;19.00;;;;;;;6.14;100.00;96860.38;4984712;28;20442;-53
2021/11/07 08:09:12;;;;;;;27.77;18.83;;;;;;;6.17;100.00;96856.72;4982369;28;20066;-55
2021/11/07 08:11:42;;;;;;;26.65;17.35;;;;;;;6.41;100.00;96849.72;4984033;28;20145;-58
2021/11/07 08:14:10;;;;;;;28.77;19.02;;;;;;;6.51;100.00;96844.69;4988039;28;20485;-57
2021/11/07 08:16:39;;;;;;;28.15;19.50;;;;;;;6.85;100.00;96824.72;5001267;28;20089;-51
2021/11/07 08:19:08;;;;;;;28.02;19.30;;;;;;;6.49;100.00;96843.09;5002062;28;20073;-57
2021/11/07 08:21:39;;;;;;;28.25;18.30;;;;;;;6.56;100.00;96839.94;5000725;28;20066;-59
2021/11/07 08:24:08;;;;;;;27.08;18.00;;;;;;;6.97;100.00;96836.06;5002920;28;20081;-58
2021/11/07 08:26:40;;;;;;;40.10;24.10;;;;;;;7.03;100.00;96821.69;5005465;28;20069;-59
2021/11/07 08:29:11;;;;;;;26.80;17.90;;;;;;;6.87;100.00;96825.44;4996495;28;20066;-56
2021/11/07 08:31:40;;;;;;;22.90;16.85;;;;;;;6.96;100.00;96820.47;4983474;28;20077;-55
2021/11/07 08:34:09;;;;;;;24.60;17.05;;;;;;;6.80;100.00;96813.72;4982958;28;20081;-54
2021/11/07 08:36:42;;;;;;;24.63;16.95;;;;;;;7.37;100.00;96817.38;4999077;28;20061;-57
2021/11/07 08:39:16;;;;;;;19.27;12.75;;;;;;;6.55;100.00;96825.16;4984621;28;20072;-54
2021/11/07 08:41:52;;;;;;;26.30;16.73;;;;;;;6.74;100.00;96819.41;4982949;28;20084;-54
2021/11/07 09:01:19;;;;;;;20.60;13.52;;;;;;;7.06;100.00;96780.34;4984402;28;20081;-55
2021/11/07 09:03:52;;;;;;;21.65;14.32;;;;;;;6.85;100.00;96776.72;4979880;28;20408;-55
2021/11/07 09:06:44;;;;;;;23.27;15.93;;;;;;;7.23;100.00;96752.84;4999208;28;20073;-59
2021/11/07 09:09:14;;;;;;;23.63;15.40;;;;;;;7.19;100.00;96738.28;5007347;28;20061;-57
2021/11/07 09:11:50;;;;;;;;;;;;;;;7.10;100.00;96739.81;5009680;28;20073;-54
2021/11/07 09:14:19;;;;;;;21.10;14.27;;;;;;;7.41;100.00;96737.47;5007508;28;19968;-55
2021/11/07 09:16:50;;;;;;;23.35;15.75;;;;;;;7.74;100.00;96731.41;5006598;28;20061;-58
2021/11/07 09:19:21;;;;;;;;;;;;;;;7.58;100.00;96721.25;5010009;28;20078;-56
2021/11/07 09:21:52;;;;;;;19.98;14.25;;;;;;;7.79;100.00;96704.78;5009457;28;20408;-56
2021/11/07 09:24:28;;;;;;;22.05;14.10;;;;;;;7.81;100.00;96692.34;5008036;28;20057;-52
2021/11/07 09:26:57;;;;;;;21.63;14.65;;;;;;;8.05;100.00;96693.03;5004194;28;20065;-57
2021/11/07 09:29:30;;;;;;;21.95;15.48;;;;;;;8.08;100.00;96682.25;5005621;28;20480;-56
2021/11/07 09:32:19;;;;;;;20.25;14.30;;;;;;;8.19;100.00;96691.94;5005624;28;20069;-54
2021/11/07 09:34:55;;;;;;;21.08;14.40;;;;;;;8.35;100.00;96696.75;5007471;28;20073;-59
2021/11/07 09:37:29;;;;;;;18.70;14.23;;;;;;;8.67;100.00;96681.03;5004213;28;20123;-52
2021/11/07 09:40:01;;;;;;;17.83;12.63;;;;;;;8.55;100.00;96682.84;5010422;28;20081;-58
2021/11/07 09:42:39;;;;;;;18.38;13.20;;;;;;;8.94;100.00;96669.97;5007454;28;20080;-51
2021/11/07 09:45:18;;;;;;;19.17;13.60;;;;;;;9.21;100.00;96672.06;5007168;28;20491;-57
2021/11/07 09:47:51;;;;;;;19.05;13.30;;;;;;;9.40;100.00;96675.78;5008033;28;20070;-56
2021/11/07 09:50:20;;;;;;;15.43;11.48;;;;;;;9.40;100.00;96675.78;5007393;28;20099;-56
2021/11/07 09:52:52;;;;;;;16.15;11.80;;;;;;;9.90;100.00;96681.06;5004550;28;20073;-58
2021/11/07 09:55:23;;;;;;;18.08;12.68;;;;;;;9.78;100.00;96680.34;5007173;28;20092;-56
2021/11/07 09:57:54;;;;;;;16.25;11.18;;;;;;;9.97;100.00;96675.09;5010376;28;20085;-55
2021/11/07 10:00:25;;;;;;;13.27;10.13;;;;;;;10.39;100.00;96676.72;5006599;28;20088;-58
2021/11/07 10:02:55;;;;;;;13.35;9.75;;;;;;;10.44;100.00;96683.25;5007193;28;20524;-56
2021/11/07 10:05:25;;;;;;;13.15;10.07;;;;;;;10.48;100.00;96681.16;5007013;28;20073;-52
2021/11/07 10:08:00;;;;;;;12.13;9.27;;;;;;;10.52;100.00;96681.72;5004764;28;20081;-54
2021/11/07 10:10:32;;;;;;;12.68;8.63;;;;;;;10.49;100.00;96682.81;5004800;28;20542;-58
2021/11/07 10:13:06;;;;;;;12.55;9.27;;;;;;;10.41;100.00;96686.16;5007583;28;20085;-57
2021/11/07 10:15:41;;;;;;;10.63;8.88;;;;;;;10.45;100.00;96679.63;4979443;28;20077;-52
2021/11/07 10:18:14;;;;;;;10.57;8.80;;;;;;;10.29;100.00;96687.28;4983383;28;20069;-57
2021/11/07 10:20:46;;;;;;;11.48;7.97;;;;;;;9.96;100.00;96693.69;4998099;28;20088;-57
2021/11/07 10:23:19;;;;;;;10.13;7.93;;;;;;;9.90;100.00;96689.78;5005917;28;20084;-58
2021/11/07 10:25:51;;;;;;;9.07;7.10;;;;;;;10.05;100.00;96687.63;5003561;28;20081;-58
2021/11/07 10:28:23;;;;;;;9.90;7.88;;;;;;;10.39;100.00;96688.13;5004864;28;20121;-50
2021/11/07 10:31:07;;;;;;;10.35;7.50;;;;;;;10.21;100.00;96679.16;4987582;28;20575;-57
2021/11/07 10:33:53;;;;;;;10.73;7.78;;;;;;;10.18;100.00;96680.25;5000853;28;20078;-54
2021/11/07 10:39:17;;;;;;;12.70;7.97;;;;;;;10.10;100.00;96668.75;5005837;28;20688;-58
2021/11/07 10:47:49;;;;;;;10.75;7.95;;;;;;;10.56;100.00;96636.47;4984905;28;20093;-56
2021/11/07 10:53:14;;;;;;;9.77;7.70;;;;;;;10.34;96.45;96600.69;4992505;28;20069;-57
2021/11/07 10:55:45;;;;;;;10.05;7.60;;;;;;;10.45;98.10;96597.06;4998730;28;20082;-57
2021/11/07 10:58:15;;;;;;;10.38;7.60;;;;;;;10.32;99.09;96609.69;5007055;28;20089;-57
2021/11/07 11:00:44;;;;;;;8.73;6.82;;;;;;;10.62;100.00;96592.88;5006704;28;20139;-57
2021/11/07 11:03:16;;;;;;;8.85;6.78;;;;;;;10.72;100.00;96600.78;4989660;28;20159;-53
2021/11/07 11:05:49;;;;;;;9.48;7.68;;;;;;;11.40;92.53;96604.88;4998903;28;20062;-57
2021/11/07 11:08:22;;;;;;;8.48;6.78;;;;;;;10.95;99.95;96602.13;5009573;28;20523;-55
2021/11/07 11:11:03;;;;;;;8.15;6.65;;;;;;;11.05;93.28;96592.38;5000903;28;20071;-54
2021/11/07 11:13:40;;;;;;;8.38;6.30;;;;;;;11.30;94.17;96604.06;4980653;28;20112;-52
2021/11/07 11:16:38;;;;;;;7.68;6.15;;;;;;;11.22;88.39;96605.75;4988371;28;20081;-57
2021/11/07 11:19:28;;;;;;;8.15;6.07;;;;;;;11.24;83.43;96603.81;4977790;28;21752;-57
2021/11/07 11:27:59;;;;;;;7.57;6.05;;;;;;;11.47;78.48;96605.09;5006548;28;20193;-53
2021/11/07 11:30:44;;;;;;;6.43;5.30;;;;;;;11.15;81.22;96614.28;5003664;28;20154;-53
2021/11/07 11:33:17;;;;;;;6.38;5.10;;;;;;;12.05;78.05;96594.22;5004546;28;20542;-58
2021/11/07 11:35:53;;;;;;;6.95;5.38;;;;;;;12.03;77.94;96598.81;5004961;28;20088;-58
2021/11/07 11:38:27;;;;;;;6.05;5.45;;;;;;;12.19;74.89;96603.44;5003004;28;20073;-59
2021/11/07 11:41:02;;;;;;;5.47;4.80;;;;;;;11.82;78.44;96616.75;5002035;28;20080;-55
2021/11/07 11:43:35;;;;;;;5.97;4.53;;;;;;;11.56;78.93;96606.88;5006187;28;20081;-54
2021/11/07 11:46:12;;;;;;;5.85;4.72;;;;;;;11.36;76.12;96598.22;5008085;28;20085;-53
2021/11/07 11:54:47;;;;;;;7.03;5.55;;;;;;;11.97;65.72;96548.38;4968090;28;20520;-56
2021/11/07 11:57:27;;;;;;;5.43;4.90;;;;;;;11.92;70.58;96540.91;5001825;28;20489;-56
2021/11/07 12:00:06;;;;;;;5.97;4.82;;;;;;;11.56;70.85;96524.16;5004645;28;20065;-58
2021/11/07 12:02:47;;;;;;;7.22;5.53;;;;;;;12.04;65.27;96523.00;5000995;28;20072;-53
2021/11/07 12:05:21;;;;;;;;;;;;;;;12.40;62.42;96520.31;5005103;28;20073;-55
2021/11/07 12:08:23;;;;;;;5.22;4.40;;;;;;;12.44;61.23;96516.38;5002193;28;19996;-59
2021/11/07 12:11:14;;;;;;;6.63;5.50;;;;;;;12.31;62.37;96499.09;5019405;28;20526;-56
2021/11/07 12:13:50;;;;;;;7.18;5.43;;;;;;;12.57;62.11;96512.34;5003742;28;20092;-55
2021/11/07 12:16:52;;;;;;;5.50;4.53;;;;;;;12.32;65.07;96499.94;5005098;28;22110;-53
2021/11/07 12:19:22;;;;;;;5.85;4.78;;;;;;;13.11;60.95;96495.41;5002394;28;20147;-58
2021/11/07 12:22:02;;;;;;;6.03;4.63;;;;;;;13.19;60.13;96488.31;5007080;28;20559;-54
2021/11/07 12:24:33;;;;;;;4.90;4.38;;;;;;;12.66;57.26;96491.22;5001638;28;20065;-59